| time (UTC) | temp F | wind direction | speed knots | gust knots | rain 1hr in | rain 24hr in | rain mn in | humidity % | barometer mb |
| 20260506031602 | 69 | 83 | 2.6 | 7.8 | 0.00 | 0.00 | 0.00 | 52 | 1014.8 |
| 20260506030112 | 69 | 114 | 2.6 | 7.8 | 0.00 | 0.00 | 0.00 | 53 | 1014.7 |
| 20260506024552 | 69 | 74 | 2.6 | 9.6 | 0.00 | 0.00 | 0.00 | 53 | 1014.6 |
| 20260506023053 | 69 | 96 | 1.7 | 8.7 | 0.00 | 0.00 | 0.00 | 53 | 1014.6 |
| 20260506021607 | 69 | 89 | 1.7 | 7.0 | 0.00 | 0.00 | 0.00 | 53 | 1014.6 |
| 20260506020054 | 69 | 76 | 2.6 | 5.2 | 0.00 | 0.00 | 0.00 | 53 | 1014.6 |
| 20260506014603 | 69 | 91 | 1.7 | 3.5 | 0.00 | 0.00 | 0.00 | 54 | 1014.5 |
| 20260506013102 | 69 | 78 | 1.7 | 2.6 | 0.00 | 0.00 | 0.00 | 53 | 1014.4 |
| 20260506011605 | 70 | 75 | 0.9 | 3.5 | 0.00 | 0.00 | 0.00 | 50 | 1014.3 |
| 20260506004627 | 72 | 87 | 2.6 | 6.1 | 0.00 | 0.00 | 0.00 | 47 | 1014.3 |
| 20260506003101 | 72 | 82 | 0.9 | 5.2 | 0.00 | 0.00 | 0.00 | 47 | 1014.4 |
| 20260506001559 | 72 | 125 | 1.7 | 5.2 | 0.00 | 0.00 | 0.00 | 46 | 1014.1 |
| 20260506000101 | 73 | 80 | 1.7 | 6.1 | 0.00 | 0.00 | 0.00 | 45 | 1014.1 |
| 20260505234615 | 73 | 0 | 0.9 | 6.1 | 0.00 | 0.00 | 0.00 | 45 | 1014.4 |
| 20260505233052 | 73 | 70 | 2.6 | 7.0 | 0.00 | 0.00 | 0.00 | 44 | 1014.4 |
| 20260505231558 | 73 | 90 | 0.9 | 6.1 | 0.00 | 0.00 | 0.00 | 44 | 1014.3 |
| 20260505230054 | 74 | 204 | 1.7 | 9.6 | 0.00 | 0.00 | 0.00 | 43 | 1014.4 |
| 20260505224559 | 75 | 167 | 2.6 | 9.6 | 0.00 | 0.00 | 0.00 | 42 | 1014.4 |
| 20260505223104 | 75 | 168 | 3.5 | 9.6 | 0.00 | 0.00 | 0.00 | 41 | 1014.5 |
| 20260505221610 | 74 | 206 | 4.3 | 12.2 | 0.00 | 0.00 | 0.00 | 42 | 1014.3 |
| 20260505220138 | 75 | 82 | 2.6 | 10.4 | 0.00 | 0.00 | 0.00 | 39 | 1014.4 |
| 20260505214615 | 76 | 144 | 5.2 | 13.0 | 0.00 | 0.00 | 0.00 | 37 | 1014.1 |
| 20260505213055 | 76 | 73 | 4.3 | 14.8 | 0.00 | 0.00 | 0.00 | 38 | 1014.3 |
| 20260505211612 | 76 | 94 | 3.5 | 13.0 | 0.00 | 0.00 | 0.00 | 37 | 1014.3 |
| 20260505210054 | 77 | 85 | 5.2 | 13.9 | 0.00 | 0.00 | 0.00 | 36 | 1014.2 |
| 20260505204554 | 77 | 114 | 7.8 | 13.9 | 0.00 | 0.00 | 0.00 | 37 | 1014.4 |
| 20260505203054 | 77 | 111 | 6.1 | 13.0 | 0.00 | 0.00 | 0.00 | 37 | 1014.7 |
| 20260505201606 | 76 | 72 | 7.0 | 13.9 | 0.00 | 0.00 | 0.00 | 37 | 1015.0 |
| 20260505194602 | 77 | 143 | 2.6 | 12.2 | 0.00 | 0.00 | 0.00 | 36 | 1015.0 |
| 20260505193050 | 77 | 85 | 3.5 | 12.2 | 0.00 | 0.00 | 0.00 | 37 | 1015.3 |
| 20260505191555 | 76 | 72 | 1.7 | 10.4 | 0.00 | 0.00 | 0.00 | 39 | 1015.6 |
| 20260505190059 | 75 | 86 | 7.0 | 11.3 | 0.00 | 0.00 | 0.00 | 39 | 1015.8 |
| 20260505184556 | 76 | 125 | 4.3 | 8.7 | 0.00 | 0.00 | 0.00 | 41 | 1016.0 |
| 20260505183059 | 74 | 79 | 7.0 | 12.2 | 0.00 | 0.00 | 0.00 | 42 | 1016.2 |
| 20260505181600 | 75 | 69 | 7.0 | 15.6 | 0.00 | 0.00 | 0.00 | 44 | 1016.5 |
| 20260505174558 | 74 | 181 | 4.3 | 13.0 | 0.00 | 0.00 | 0.00 | 42 | 1016.6 |
| 20260505173056 | 74 | 75 | 2.6 | 11.3 | 0.00 | 0.00 | 0.00 | 43 | 1016.8 |
| 20260505171600 | 74 | 78 | 5.2 | 10.4 | 0.00 | 0.00 | 0.00 | 43 | 1016.8 |
| 20260505170056 | 73 | 121 | 4.3 | 13.0 | 0.00 | 0.00 | 0.00 | 42 | 1017.1 |
| 20260505164609 | 73 | 186 | 4.3 | 10.4 | 0.00 | 0.00 | 0.00 | 41 | 1017.3 |
| 20260505163053 | 73 | 159 | 3.5 | 9.6 | 0.00 | 0.00 | 0.00 | 43 | 1017.2 |
| 20260505161554 | 72 | 124 | 4.3 | 10.4 | 0.00 | 0.00 | 0.00 | 41 | 1017.1 |
| 20260505160105 | 71 | 143 | 5.2 | 10.4 | 0.00 | 0.00 | 0.00 | 42 | 1017.3 |
| 20260505153055 | 71 | 159 | 4.3 | 8.7 | 0.00 | 0.00 | 0.00 | 45 | 1017.8 |
| 20260505151552 | 70 | 201 | 2.6 | 9.6 | 0.00 | 0.00 | 0.00 | 47 | 1018.1 |
| 20260505130111 | 63 | 0 | 0.0 | 3.5 | 0.00 | 0.00 | 0.00 | 56 | 1016.3 |
| 20260505124607 | 63 | 0 | 0.0 | 1.7 | 0.00 | 0.00 | 0.00 | 63 | 1016.2 |
| 20260505123105 | 61 | 0 | 0.0 | 0.9 | 0.00 | 0.00 | 0.00 | 63 | 1016.1 |
| 20260505121555 | 58 | 0 | 0.0 | 0.9 | 0.00 | 0.00 | 0.00 | 72 | 1016.0 |
| 20260505120101 | 54 | 0 | 0.0 | 0.9 | 0.00 | 0.00 | 0.00 | 77 | 1015.8 |
| 20260505114555 | 51 | 0 | 0.0 | 0.0 | 0.00 | 0.00 | 0.00 | 79 | 1015.6 |
| 20260505113056 | 51 | 0 | 0.0 | 0.0 | 0.00 | 0.00 | 0.00 | 78 | 1015.5 |
| 20260505111553 | 51 | 0 | 0.0 | 0.0 | 0.00 | 0.00 | 0.00 | 76 | 1015.4 |
| 20260505110104 | 53 | 25 | 0.0 | 0.9 | 0.00 | 0.00 | 0.00 | 73 | 1015.3 |
| 20260505101554 | 53 | 92 | 2.6 | 6.1 | 0.00 | 0.00 | 0.00 | 72 | 1015.5 |
| 20260505100056 | 50 | 0 | 0.0 | 0.9 | 0.00 | 0.00 | 0.00 | 79 | 1015.3 |
| 20260505094555 | 50 | 0 | 0.0 | 0.0 | 0.00 | 0.00 | 0.00 | 79 | 1015.3 |
| 20260505093054 | 50 | 0 | 0.0 | 0.0 | 0.00 | 0.00 | 0.00 | 77 | 1015.3 |
| 20260505091606 | 51 | 0 | 0.0 | 0.0 | 0.00 | 0.00 | 0.00 | 75 | 1015.4 |
| 20260505090054 | 52 | 0 | 0.0 | 0.0 | 0.00 | 0.00 | 0.00 | 73 | 1015.4 |
| 20260505084553 | 53 | 0 | 0.0 | 0.0 | 0.00 | 0.00 | 0.00 | 70 | 1015.4 |
| 20260505083056 | 54 | 0 | 0.0 | 0.0 | 0.00 | 0.00 | 0.00 | 67 | 1015.5 |
| 20260505081555 | 55 | 0 | 0.0 | 0.0 | 0.00 | 0.00 | 0.00 | 65 | 1015.5 |
| 20260505080106 | 56 | 0 | 0.0 | 0.9 | 0.00 | 0.00 | 0.00 | 61 | 1015.6 |
| 20260505074552 | 58 | 169 | 0.0 | 0.9 | 0.00 | 0.00 | 0.00 | 59 | 1015.4 |
| 20260505073058 | 59 | 0 | 0.0 | 1.7 | 0.00 | 0.00 | 0.00 | 56 | 1015.5 |
| 20260505071555 | 59 | 0 | 0.0 | 1.7 | 0.00 | 0.00 | 0.00 | 54 | 1015.5 |
| 20260505070056 | 60 | 137 | 0.0 | 3.5 | 0.00 | 0.00 | 0.00 | 53 | 1015.4 |
| 20260505064553 | 61 | 132 | 0.9 | 4.3 | 0.00 | 0.00 | 0.00 | 51 | 1015.4 |
| 20260505063112 | 62 | 128 | 0.9 | 6.1 | 0.00 | 0.00 | 0.00 | 50 | 1015.5 |
| 20260505061556 | 62 | 180 | 1.7 | 7.0 | 0.00 | 0.00 | 0.00 | 49 | 1015.7 |
| 20260505060100 | 63 | 119 | 3.5 | 10.4 | 0.00 | 0.00 | 0.00 | 47 | 1015.8 |
| 20260505054608 | 63 | 138 | 2.6 | 8.7 | 0.00 | 0.00 | 0.00 | 47 | 1015.8 |
| 20260505053103 | 63 | 108 | 1.7 | 7.0 | 0.00 | 0.00 | 0.00 | 48 | 1015.8 |
| 20260505051554 | 63 | 90 | 1.7 | 8.7 | 0.00 | 0.00 | 0.00 | 48 | 1015.8 |
| 20260505041605 | 64 | 87 | 1.7 | 7.8 | 0.00 | 0.00 | 0.00 | 49 | 1015.8 |
| 20260505040057 | 64 | 84 | 2.6 | 8.7 | 0.00 | 0.00 | 0.00 | 50 | 1015.8 |
| 20260505034557 | 65 | 131 | 3.5 | 7.8 | 0.00 | 0.00 | 0.00 | 49 | 1016.0 |
| 20260505033104 | 65 | 71 | 3.5 | 8.7 | 0.00 | 0.00 | 0.00 | 49 | 1016.1 |